createdAt,value
2018-06-10T00:01:13.353Z,17.84
2018-06-10T00:03:41.684Z,17.90
2018-06-10T00:06:10.006Z,17.92
2018-06-10T00:08:38.324Z,17.89
2018-06-10T00:11:06.644Z,17.81
2018-06-10T00:13:35.036Z,17.75
2018-06-10T00:16:03.356Z,17.68
2018-06-10T00:18:31.664Z,17.59
2018-06-10T00:20:59.399Z,17.57
2018-06-10T00:23:28.295Z,17.57
2018-06-10T00:25:56.607Z,17.61
2018-06-10T00:28:24.934Z,17.58
2018-06-10T00:30:53.247Z,17.55
2018-06-10T00:33:21.561Z,17.51
2018-06-10T00:35:49.886Z,17.45
2018-06-10T00:38:18.208Z,17.46
2018-06-10T00:40:46.519Z,17.46
2018-06-10T00:43:14.833Z,17.42
2018-06-10T00:45:43.157Z,17.40
2018-06-10T00:48:11.484Z,17.45
2018-06-10T00:50:39.793Z,17.45
2018-06-10T00:53:08.112Z,17.48
2018-06-10T00:55:36.426Z,17.49
2018-06-10T00:58:04.750Z,17.45
2018-06-10T01:00:33.072Z,17.31
2018-06-10T01:03:01.373Z,17.21
2018-06-10T01:05:29.688Z,17.17
2018-06-10T01:07:58.013Z,17.18
2018-06-10T01:10:25.759Z,17.23
2018-06-10T01:12:54.655Z,17.32
2018-06-10T01:15:22.406Z,17.44
2018-06-10T01:17:51.307Z,17.53
2018-06-10T01:20:19.619Z,17.55
2018-06-10T01:22:47.931Z,17.53
2018-06-10T01:25:16.254Z,17.46
2018-06-10T01:27:44.569Z,17.40
2018-06-10T01:30:12.309Z,17.31
2018-06-10T01:32:41.205Z,17.26
2018-06-10T01:35:09.531Z,17.26
2018-06-10T01:37:37.837Z,17.27
2018-06-10T01:40:06.160Z,17.25
2018-06-10T01:42:34.474Z,17.16
2018-06-10T01:45:02.206Z,17.14
2018-06-10T01:47:31.104Z,17.19
2018-06-10T01:49:58.846Z,17.27
2018-06-10T01:52:27.725Z,17.34
2018-06-10T01:54:56.642Z,17.37
2018-06-10T01:57:24.957Z,17.35
2018-06-10T01:59:53.028Z,17.23
2018-06-10T02:02:21.610Z,17.08
2018-06-10T02:04:49.922Z,17.00
2018-06-10T02:07:18.243Z,17.04
2018-06-10T02:09:46.552Z,17.13
2018-06-10T02:12:14.288Z,17.23
2018-06-10T02:14:43.186Z,17.22
2018-06-10T02:17:11.499Z,17.15
2018-06-10T02:19:39.236Z,17.07
2018-06-10T02:22:08.137Z,16.87
2018-06-10T02:24:36.493Z,16.77
2018-06-10T02:27:04.810Z,16.63
2018-06-10T02:29:33.119Z,16.54
2018-06-10T02:32:01.438Z,16.49
2018-06-10T02:34:29.163Z,16.54
2018-06-10T02:36:57.473Z,16.59
2018-06-10T02:39:26.415Z,16.67
2018-06-10T02:41:54.729Z,16.74
2018-06-10T02:44:23.051Z,16.78
2018-06-10T02:46:51.359Z,16.85
2018-06-10T02:49:19.678Z,17.00
2018-06-10T02:51:47.411Z,17.15
2018-06-10T02:54:16.306Z,17.28
2018-06-10T02:56:44.874Z,17.28
2018-06-10T02:59:12.612Z,17.25
2018-06-10T03:01:41.512Z,17.28
2018-06-10T03:04:09.825Z,17.37
2018-06-10T03:06:38.146Z,17.39
2018-06-10T03:09:06.465Z,17.47
2018-06-10T03:11:34.791Z,17.58
2018-06-10T03:14:03.106Z,17.70
2018-06-10T03:16:31.433Z,17.79
2018-06-10T03:18:59.178Z,17.84
2018-06-10T03:21:28.077Z,17.84
2018-06-10T03:23:56.398Z,17.87
2018-06-10T03:26:24.707Z,17.95
2018-06-10T03:28:53.023Z,18.00
2018-06-10T03:31:21.349Z,18.11
2018-06-10T03:33:49.680Z,18.20
2018-06-10T03:36:17.991Z,18.23
2018-06-10T03:38:45.743Z,18.24
2018-06-10T03:41:14.638Z,18.27
2018-06-10T03:43:42.377Z,18.27
2018-06-10T03:46:11.287Z,18.33
2018-06-10T03:48:39.605Z,18.41
2018-06-10T03:51:07.913Z,18.48
2018-06-10T03:53:35.655Z,18.51
2018-06-10T03:56:04.568Z,18.58
2018-06-10T03:58:32.938Z,18.61
2018-06-10T04:01:00.676Z,18.65
2018-06-10T04:03:29.005Z,18.68
2018-06-10T04:05:57.907Z,18.76
2018-06-10T04:08:26.230Z,18.82
2018-06-10T04:10:54.543Z,18.82
2018-06-10T04:13:22.873Z,18.87
2018-06-10T04:15:50.693Z,18.97
2018-06-10T04:18:18.929Z,19.10
2018-06-10T04:20:47.829Z,19.22
2018-06-10T04:23:16.146Z,19.31
2018-06-10T04:25:44.474Z,19.40
2018-06-10T04:28:12.789Z,19.51
2018-06-10T04:30:41.113Z,19.77
2018-06-10T04:33:08.857Z,20.01
2018-06-10T04:35:37.763Z,20.07
2018-06-10T04:38:06.085Z,20.12
2018-06-10T04:40:34.401Z,20.15
2018-06-10T04:43:02.721Z,20.22
2018-06-10T04:45:31.046Z,20.28
2018-06-10T04:47:59.371Z,20.32
2018-06-10T04:50:27.106Z,20.35
2018-06-10T04:52:56.029Z,20.34
2018-06-10T04:55:23.750Z,20.38
2018-06-10T04:57:52.662Z,20.46
2018-06-10T05:00:20.978Z,20.53
2018-06-10T05:02:49.294Z,20.54
2018-06-10T05:05:17.036Z,20.56
2018-06-10T05:07:45.928Z,20.64
2018-06-10T05:10:14.257Z,20.72
2018-06-10T05:12:42.587Z,20.76
2018-06-10T05:15:11.266Z,20.83
2018-06-10T05:17:39.009Z,20.87
2018-06-10T05:20:08.014Z,20.91
2018-06-10T05:22:35.642Z,21.03
2018-06-10T05:25:03.958Z,21.11
2018-06-10T05:27:32.853Z,21.18
2018-06-10T05:30:01.181Z,21.24
2018-06-10T05:32:29.500Z,21.33
2018-06-10T05:34:57.244Z,21.41
2018-06-10T05:37:25.565Z,21.49
2018-06-10T05:39:53.898Z,21.54
2018-06-10T05:42:22.801Z,21.60
2018-06-10T05:44:50.538Z,21.67
2018-06-10T05:47:18.891Z,21.75
2018-06-10T05:49:47.744Z,21.83
2018-06-10T05:52:16.053Z,21.90
2018-06-10T05:54:44.372Z,21.96
2018-06-10T05:57:12.702Z,22.03
2018-06-10T05:59:41.026Z,22.08
2018-06-10T06:02:09.519Z,22.14
2018-06-10T06:04:37.284Z,22.21
2018-06-10T06:07:05.601Z,22.28
2018-06-10T06:09:34.503Z,22.36
2018-06-10T06:12:02.829Z,22.43
2018-06-10T06:14:31.147Z,22.50
2018-06-10T06:16:59.457Z,22.57
2018-06-10T06:19:27.425Z,22.63
2018-06-10T06:21:56.091Z,22.68
2018-06-10T06:24:23.832Z,22.73
2018-06-10T06:26:52.736Z,22.80
2018-06-10T06:29:21.049Z,22.84
2018-06-10T06:31:49.363Z,22.90
2018-06-10T06:34:17.708Z,22.94
2018-06-10T06:36:46.020Z,22.99
2018-06-10T06:39:14.357Z,23.05
2018-06-10T06:41:42.114Z,23.12
2018-06-10T06:44:10.454Z,23.18
2018-06-10T06:46:39.353Z,23.22
2018-06-10T06:49:07.671Z,23.27
2018-06-10T06:51:35.999Z,23.37
2018-06-10T06:54:04.320Z,23.44
2018-06-10T06:56:32.640Z,23.49
2018-06-10T06:59:00.380Z,23.50
2018-06-10T07:01:29.293Z,23.51
2018-06-10T07:03:57.805Z,23.55
2018-06-10T07:06:26.136Z,23.61
2018-06-10T07:08:54.475Z,23.66
2018-06-10T07:11:22.257Z,23.71
2018-06-10T07:13:51.149Z,23.74
2018-06-10T07:16:19.502Z,23.79
2018-06-10T07:18:47.815Z,23.83
2018-06-10T07:21:15.621Z,23.88
2018-06-10T07:23:43.946Z,23.91
2018-06-10T07:26:12.206Z,23.99
2018-06-10T07:28:41.111Z,24.04
2018-06-10T07:31:09.439Z,24.08
2018-06-10T07:33:37.802Z,24.10
2018-06-10T07:36:05.514Z,24.13
2018-06-10T07:38:33.852Z,24.18
2018-06-10T07:41:02.761Z,24.22
2018-06-10T07:43:31.095Z,24.29
2018-06-10T07:45:59.411Z,24.32
2018-06-10T07:48:27.783Z,24.34
2018-06-10T07:50:55.493Z,24.44
2018-06-10T07:53:24.401Z,24.48
2018-06-10T07:55:53.576Z,24.54
2018-06-10T07:58:21.894Z,24.56
2018-06-10T08:00:50.395Z,24.57
2018-06-10T08:03:18.730Z,24.62
2018-06-10T08:05:47.097Z,24.67
2018-06-10T08:08:16.013Z,24.68
2018-06-10T08:10:44.339Z,24.73
2018-06-10T08:13:12.078Z,24.77
2018-06-10T08:15:44.512Z,24.84
2018-06-10T08:18:14.063Z,24.87
2018-06-10T08:20:41.328Z,24.94
2018-06-10T08:23:09.664Z,24.99
2018-06-10T08:25:38.000Z,25.05
2018-06-10T08:28:06.336Z,25.06
2018-06-10T08:30:34.077Z,25.11
2018-06-10T08:33:02.989Z,25.16
2018-06-10T08:35:30.735Z,25.17
2018-06-10T08:37:59.052Z,25.21
2018-06-10T08:40:27.463Z,25.26
2018-06-10T08:42:56.290Z,25.31
2018-06-10T08:45:24.626Z,25.32
2018-06-10T08:47:52.939Z,25.33
2018-06-10T08:50:21.270Z,25.35
2018-06-10T08:52:49.608Z,25.37
2018-06-10T08:55:17.947Z,25.38
2018-06-10T08:57:45.686Z,25.45
2018-06-10T09:00:14.619Z,25.53
2018-06-10T09:02:42.431Z,25.60
2018-06-10T09:05:11.281Z,25.62
2018-06-10T09:07:39.659Z,25.61
2018-06-10T09:10:07.987Z,25.65
2018-06-10T09:12:36.336Z,25.69
2018-06-10T09:15:04.715Z,25.71
2018-06-10T09:17:36.598Z,25.78
2018-06-10T09:20:04.968Z,25.81
2018-06-10T09:22:33.291Z,25.83
2018-06-10T09:25:01.621Z,25.88
2018-06-10T09:27:29.957Z,25.95
2018-06-10T09:29:57.701Z,26.01
2018-06-10T09:32:26.606Z,26.07
2018-06-10T09:34:54.406Z,26.11
2018-06-10T09:37:23.256Z,26.16
2018-06-10T09:39:51.636Z,26.17
2018-06-10T09:42:19.380Z,26.19
2018-06-10T09:44:48.281Z,26.20
2018-06-10T09:47:16.601Z,26.23
2018-06-10T09:49:45.167Z,26.27
2018-06-10T09:52:12.678Z,26.29
2018-06-10T09:54:41.650Z,26.32
2018-06-10T09:57:09.986Z,26.32
2018-06-10T09:59:38.287Z,26.35
2018-06-10T10:02:06.608Z,26.39
2018-06-10T10:04:34.924Z,26.40
2018-06-10T10:07:03.255Z,26.40
2018-06-10T10:09:31.052Z,26.41
2018-06-10T10:12:00.012Z,26.40
2018-06-10T10:14:28.366Z,26.37
2018-06-10T10:16:56.685Z,26.38
2018-06-10T10:19:24.415Z,26.41
2018-06-10T10:21:53.328Z,26.45
2018-06-10T10:24:21.713Z,26.46
2018-06-10T10:26:49.450Z,26.49
2018-06-10T10:29:17.821Z,26.52
2018-06-10T10:31:46.764Z,26.57
2018-06-10T10:34:15.046Z,26.59
2018-06-10T10:36:43.478Z,26.65
2018-06-10T10:39:11.801Z,26.68
2018-06-10T10:41:41.189Z,26.71
2018-06-10T10:44:08.531Z,26.74
2018-06-10T10:46:36.861Z,26.76
2018-06-10T10:49:12.519Z,26.78
2018-06-10T10:51:40.869Z,26.85
2018-06-10T10:54:09.178Z,26.86
2018-06-10T10:56:37.509Z,26.91
2018-06-10T10:59:05.272Z,26.93
2018-06-10T11:01:34.193Z,26.94
2018-06-10T11:04:02.552Z,26.98
2018-06-10T11:06:30.298Z,26.99
2018-06-10T11:08:59.223Z,27.04
2018-06-10T11:11:27.592Z,27.11
2018-06-10T11:13:55.917Z,27.16
2018-06-10T11:16:24.265Z,27.39
2018-06-10T11:18:52.592Z,27.43
2018-06-10T11:21:20.917Z,27.46
2018-06-10T11:23:49.242Z,27.45
2018-06-10T11:26:17.582Z,27.48
2018-06-10T11:28:45.897Z,27.57
2018-06-10T11:31:14.240Z,27.68
2018-06-10T11:33:42.557Z,27.77
2018-06-10T11:36:10.305Z,27.85
2018-06-10T11:38:38.658Z,27.93
2018-06-10T11:41:06.992Z,28.07
2018-06-10T11:43:35.401Z,28.18
2018-06-10T11:46:05.907Z,28.27
2018-06-10T11:48:34.269Z,28.33
2018-06-10T11:51:03.229Z,28.40
2018-06-10T11:53:31.629Z,28.44
2018-06-10T11:56:02.861Z,28.49
2018-06-10T11:58:29.306Z,28.52
2018-06-10T12:00:57.780Z,28.55
2018-06-10T12:03:26.097Z,28.65
2018-06-10T12:05:54.661Z,28.75
2018-06-10T12:08:22.750Z,28.90
2018-06-10T12:10:51.102Z,29.07
2018-06-10T12:13:19.472Z,29.23
2018-06-10T12:15:47.794Z,29.32
2018-06-10T12:18:16.117Z,29.45
2018-06-10T12:20:44.437Z,29.55
2018-06-10T12:23:12.791Z,29.65
2018-06-10T12:25:40.722Z,29.69
2018-06-10T12:28:09.627Z,29.87
2018-06-10T12:30:38.094Z,30.01
2018-06-10T12:33:06.440Z,30.14
2018-06-10T12:35:34.762Z,30.19
2018-06-10T12:38:03.092Z,30.28
2018-06-10T12:40:30.831Z,30.38
2018-06-10T12:42:59.741Z,30.55
2018-06-10T12:45:28.061Z,30.68
2018-06-10T12:47:55.809Z,30.80
2018-06-10T12:50:24.149Z,30.87
2018-06-10T12:52:53.071Z,31.08
2018-06-10T12:55:21.397Z,31.28
2018-06-10T12:57:49.166Z,31.40
2018-06-10T13:00:17.484Z,31.47
2018-06-10T13:02:46.429Z,31.58
2018-06-10T13:05:14.748Z,31.70
2018-06-10T13:07:43.070Z,31.76
2018-06-10T13:10:12.062Z,31.92
2018-06-10T13:12:40.276Z,32.03
2018-06-10T13:15:08.746Z,32.03
2018-06-10T13:17:37.649Z,32.22
2018-06-10T13:20:05.981Z,32.37
2018-06-10T13:22:33.728Z,32.55
2018-06-10T13:25:02.634Z,32.77
2018-06-10T13:27:30.989Z,32.95
2018-06-10T13:29:58.763Z,33.06
2018-06-10T13:32:28.276Z,33.16
2018-06-10T13:34:55.420Z,33.24
2018-06-10T13:37:24.321Z,33.28
2018-06-10T13:39:52.660Z,33.27
2018-06-10T13:42:20.980Z,33.35
2018-06-10T13:44:48.773Z,33.36
2018-06-10T13:47:17.630Z,33.41
2018-06-10T13:49:45.949Z,33.53
2018-06-10T13:52:14.283Z,33.65
2018-06-10T13:54:42.609Z,33.73
2018-06-10T13:57:10.937Z,33.80
2018-06-10T13:59:38.691Z,33.80
2018-06-10T14:02:07.838Z,33.85
2018-06-10T14:04:35.929Z,33.93
2018-06-10T14:07:04.250Z,34.01
2018-06-10T14:09:32.578Z,34.05
2018-06-10T14:12:00.938Z,34.22
2018-06-10T14:14:28.685Z,34.29
2018-06-10T14:16:57.633Z,34.29
2018-06-10T14:19:25.957Z,34.46
2018-06-10T14:21:54.283Z,34.54
2018-06-10T14:24:22.610Z,34.58
2018-06-10T14:26:50.970Z,34.66
2018-06-10T14:29:19.266Z,34.66
2018-06-10T14:31:47.598Z,34.68
2018-06-10T14:34:16.701Z,34.78
2018-06-10T14:36:45.270Z,34.87
2018-06-10T14:39:13.600Z,34.90
2018-06-10T14:41:41.342Z,34.92
2018-06-10T14:44:10.490Z,34.90
2018-06-10T14:46:38.988Z,34.98
2018-06-10T14:49:07.337Z,35.07
2018-06-10T14:51:35.662Z,35.16
2018-06-10T14:54:03.984Z,35.26
2018-06-10T14:56:32.317Z,35.43
2018-06-10T14:59:00.637Z,35.53
2018-06-10T15:01:28.373Z,35.64
2018-06-10T15:03:57.289Z,35.71
2018-06-10T15:06:25.182Z,35.73
2018-06-10T15:08:54.093Z,35.83
2018-06-10T15:11:21.873Z,35.89
2018-06-10T15:13:50.741Z,35.88
2018-06-10T15:16:18.509Z,35.85
2018-06-10T15:18:47.469Z,35.76
2018-06-10T15:21:15.782Z,35.79
2018-06-10T15:23:44.107Z,35.90
2018-06-10T15:26:12.440Z,35.89
2018-06-10T15:28:40.176Z,35.93
2018-06-10T15:31:08.507Z,35.84
2018-06-10T15:33:37.405Z,35.73
2018-06-10T15:36:05.153Z,35.46
2018-06-10T15:38:34.146Z,35.32
2018-06-10T15:41:02.653Z,35.23
2018-06-10T15:43:31.009Z,35.21
2018-06-10T15:45:59.383Z,35.18
2018-06-10T15:48:27.695Z,35.08
2018-06-10T15:50:56.019Z,35.06
2018-06-10T15:53:23.776Z,34.94
2018-06-10T15:55:54.169Z,34.57
2018-06-10T15:58:22.528Z,34.30
2018-06-10T16:00:50.261Z,34.07
2018-06-10T16:03:19.167Z,34.03
2018-06-10T16:05:47.486Z,34.01
2018-06-10T16:08:15.229Z,34.02
2018-06-10T16:10:44.129Z,34.03
2018-06-10T16:13:12.453Z,34.00
2018-06-10T16:15:40.785Z,33.84
2018-06-10T16:18:09.110Z,33.64
2018-06-10T16:20:37.495Z,33.46
2018-06-10T16:23:05.829Z,33.23
2018-06-10T16:25:34.151Z,33.06
2018-06-10T16:28:02.477Z,32.95
2018-06-10T16:30:30.807Z,32.88
2018-06-10T16:32:59.198Z,32.76
2018-06-10T16:35:27.522Z,32.77
2018-06-10T16:37:55.852Z,32.76
2018-06-10T16:40:24.405Z,32.69
2018-06-10T16:42:53.544Z,32.58
2018-06-10T16:45:21.342Z,32.43
2018-06-10T16:47:50.247Z,32.22
2018-06-10T16:50:17.992Z,32.02
2018-06-10T16:52:46.899Z,31.80
2018-06-10T16:55:15.263Z,31.59
2018-06-10T16:57:43.646Z,31.37
2018-06-10T17:00:12.127Z,31.18
2018-06-10T17:02:40.399Z,30.98
2018-06-10T17:05:08.722Z,30.85
2018-06-10T17:07:37.065Z,30.70
2018-06-10T17:10:04.806Z,30.53
2018-06-10T17:12:34.119Z,30.32
2018-06-10T17:15:02.450Z,30.20
2018-06-10T17:17:30.783Z,30.07
2018-06-10T17:19:58.537Z,29.93
2018-06-10T17:22:27.513Z,29.82
2018-06-10T17:24:55.863Z,29.71
2018-06-10T17:27:24.442Z,29.67
2018-06-10T17:29:52.550Z,29.60
2018-06-10T17:32:20.297Z,29.51
2018-06-10T17:34:49.204Z,29.40
2018-06-10T17:37:17.528Z,29.33
2018-06-10T17:39:45.305Z,29.21
2018-06-10T17:42:14.236Z,29.00
2018-06-10T17:44:42.542Z,28.89
2018-06-10T17:47:10.285Z,28.76
2018-06-10T17:49:39.017Z,28.69
2018-06-10T17:52:07.807Z,28.66
2018-06-10T17:54:36.129Z,28.63
2018-06-10T17:57:04.595Z,28.64
2018-06-10T17:59:32.913Z,28.53
2018-06-10T18:02:00.652Z,28.49
2018-06-10T18:04:29.552Z,28.30
2018-06-10T18:06:57.882Z,28.22
2018-06-10T18:09:26.232Z,28.10
2018-06-10T18:11:54.560Z,28.06
2018-06-10T18:14:22.876Z,28.03
2018-06-10T18:16:51.205Z,27.90
2018-06-10T18:19:19.548Z,27.69
2018-06-10T18:21:47.299Z,27.56
2018-06-10T18:24:16.253Z,27.55
2018-06-10T18:26:44.498Z,27.59
2018-06-10T18:29:12.923Z,27.56
2018-06-10T18:31:41.250Z,27.40
2018-06-10T18:34:09.579Z,27.43
2018-06-10T18:36:37.909Z,27.46
2018-06-10T18:39:06.234Z,27.49
2018-06-10T18:41:34.563Z,27.52
2018-06-10T18:44:02.917Z,27.47
2018-06-10T18:46:31.251Z,27.54
2018-06-10T18:48:59.606Z,27.53
2018-06-10T18:51:27.361Z,27.44
2018-06-10T18:53:55.736Z,27.41
2018-06-10T18:56:24.631Z,27.33
2018-06-10T18:58:52.967Z,27.25
2018-06-10T19:01:20.731Z,27.27
2018-06-10T19:03:49.211Z,27.26
2018-06-10T19:06:18.045Z,27.25
2018-06-10T19:08:46.359Z,27.28
2018-06-10T19:11:14.696Z,27.21
2018-06-10T19:13:43.401Z,27.18
2018-06-10T19:16:11.735Z,27.07
2018-06-10T19:18:40.052Z,26.84
2018-06-10T19:21:08.400Z,26.69
2018-06-10T19:23:36.740Z,26.69
2018-06-10T19:26:08.259Z,26.63
2018-06-10T19:28:34.242Z,26.67
2018-06-10T19:31:02.511Z,26.65
2018-06-10T19:33:30.917Z,26.62
2018-06-10T19:35:59.246Z,26.50
2018-06-10T19:38:27.792Z,26.38
2018-06-10T19:40:56.169Z,26.28
2018-06-10T19:43:24.578Z,26.22
2018-06-10T19:45:52.387Z,26.19
2018-06-10T19:48:20.665Z,26.25
2018-06-10T19:50:50.801Z,26.25
2018-06-10T19:53:19.405Z,26.26
2018-06-10T19:55:47.580Z,26.24
2018-06-10T19:58:15.895Z,26.15
2018-06-10T20:00:43.643Z,26.04
2018-06-10T20:03:12.608Z,25.74
2018-06-10T20:05:40.448Z,25.52
2018-06-10T20:08:09.424Z,25.33
2018-06-10T20:10:37.218Z,25.18
2018-06-10T20:13:06.125Z,25.13
2018-06-10T20:15:34.462Z,25.06
2018-06-10T20:18:02.835Z,25.02
2018-06-10T20:20:30.572Z,24.96
2018-06-10T20:22:58.941Z,24.83
2018-06-10T20:25:27.841Z,24.80
2018-06-10T20:27:56.266Z,24.71
2018-06-10T20:30:24.622Z,24.68
2018-06-10T20:32:52.628Z,24.68
2018-06-10T20:35:20.778Z,24.73
2018-06-10T20:37:49.673Z,24.75
2018-06-10T20:40:17.999Z,24.80
2018-06-10T20:42:46.344Z,24.78
2018-06-10T20:45:14.668Z,24.75
2018-06-10T20:47:42.415Z,24.63
2018-06-10T20:50:12.016Z,24.53
2018-06-10T20:52:40.278Z,24.52
2018-06-10T20:55:08.609Z,24.44
2018-06-10T20:57:36.927Z,24.40
2018-06-10T21:00:05.215Z,24.50
2018-06-10T21:02:33.603Z,24.54
2018-06-10T21:05:01.926Z,24.61
2018-06-10T21:07:30.256Z,24.64
2018-06-10T21:09:57.996Z,24.67
2018-06-10T21:12:26.892Z,24.70
2018-06-10T21:14:55.305Z,24.67
2018-06-10T21:17:23.665Z,24.54
2018-06-10T21:19:51.997Z,24.50
2018-06-10T21:22:20.314Z,24.46
2018-06-10T21:24:48.641Z,24.29
2018-06-10T21:27:16.993Z,24.13
2018-06-10T21:29:45.337Z,24.04
2018-06-10T21:32:13.669Z,23.96
2018-06-10T21:34:41.996Z,23.94
2018-06-10T21:37:10.310Z,24.00
2018-06-10T21:39:38.642Z,24.06
2018-06-10T21:42:07.045Z,24.13
2018-06-10T21:44:35.374Z,24.17
2018-06-10T21:47:03.114Z,24.20
2018-06-10T21:49:31.431Z,24.13
2018-06-10T21:52:00.969Z,24.11
2018-06-10T21:54:29.290Z,24.11
2018-06-10T21:56:57.601Z,24.06
2018-06-10T21:59:25.342Z,24.09
2018-06-10T22:01:53.673Z,24.12
2018-06-10T22:04:22.104Z,24.18
2018-06-10T22:06:50.478Z,24.31
2018-06-10T22:09:18.794Z,24.33
2018-06-10T22:11:49.542Z,24.30
2018-06-10T22:14:17.280Z,24.29
2018-06-10T22:16:45.609Z,24.22
2018-06-10T22:19:14.508Z,24.19
2018-06-10T22:21:42.837Z,24.06
2018-06-10T22:24:11.156Z,24.04
2018-06-10T22:26:39.499Z,24.10
2018-06-10T22:29:07.274Z,24.12
2018-06-10T22:31:36.206Z,24.09
2018-06-10T22:34:03.973Z,23.96
2018-06-10T22:36:32.870Z,23.93
2018-06-10T22:39:00.630Z,23.85
2018-06-10T22:41:29.015Z,23.82
2018-06-10T22:43:57.876Z,23.89
2018-06-10T22:46:26.198Z,24.03
2018-06-10T22:48:54.574Z,24.17
2018-06-10T22:51:22.317Z,24.27
2018-06-10T22:53:51.228Z,24.34
2018-06-10T22:56:19.550Z,24.26
2018-06-10T22:58:47.293Z,24.14
2018-06-10T23:01:16.212Z,23.97
2018-06-10T23:03:44.515Z,23.92
2018-06-10T23:06:12.835Z,23.88
2018-06-10T23:08:40.578Z,23.84
2018-06-10T23:11:09.653Z,23.67
2018-06-10T23:13:37.398Z,23.56
2018-06-10T23:16:06.562Z,23.55
2018-06-10T23:18:34.874Z,23.55
2018-06-10T23:21:03.548Z,23.60
2018-06-10T23:23:31.857Z,23.68
2018-06-10T23:26:00.170Z,23.75
2018-06-10T23:28:27.917Z,23.79
2018-06-10T23:30:56.815Z,23.79
2018-06-10T23:33:25.185Z,23.74
2018-06-10T23:35:53.493Z,23.73
2018-06-10T23:38:21.809Z,23.79
2018-06-10T23:40:50.121Z,23.81
2018-06-10T23:43:18.446Z,23.84
2018-06-10T23:45:46.750Z,23.82
2018-06-10T23:48:15.061Z,23.81
2018-06-10T23:50:43.373Z,23.75
2018-06-10T23:53:11.690Z,23.69
2018-06-10T23:55:39.433Z,23.66
2018-06-10T23:58:08.324Z,23.54
